This is the latest recevied weather packets stored in our database for station/object K4AGR-13. If no packets are shown the sender has not sent any weather packets the latest 10 day(s).
| Time | Temp. | Humidity | Pressure | Rain* | Wind** | Luminosity | Snow |
|---|---|---|---|---|---|---|---|
| 1777436778 | 22.22° C | 80% | 1018.2 hPa | 0 mm | - | 0 W/m² | - |
| 1777434959 | 22.78° C | 80% | 1018.6 hPa | 0 mm | - | 0 W/m² | - |
| 1777425542 | 22.78° C | 73% | 1016.9 hPa | 0 mm | - | 0 W/m² | - |
| 1777425236 | 22.78° C | 72% | 1017 hPa | 0 mm | - | 0 W/m² | - |
| 1777424934 | 22.78° C | 71% | 1016.9 hPa | 0 mm | - | 0 W/m² | - |
| 1777423718 | 23.89° C | 68% | 1017.1 hPa | 0 mm | - | 0 W/m² | - |
| 1777423113 | 23.89° C | 68% | 1017.1 hPa | 0 mm | - | 0 W/m² | - |
| 1777422808 | 23.89° C | 67% | 1017.3 hPa | 0 mm | - | 0 W/m² | - |
| 1777422505 | 24.44° C | 65% | 1017.3 hPa | 0 mm | - | 0 W/m² | - |
| 1777422200 | 24.44° C | 64% | 1017.4 hPa | 0 mm | - | 1 W/m² | - |
| 1777420380 | 25° C | 63% | 1017.3 hPa | 0 mm | - | 14 W/m² | - |
| 1777410668 | 26.67° C | 54% | 1018.3 hPa | 0 mm | - | 125 W/m² | - |
| 1777410363 | 27.22° C | 54% | 1018.1 hPa | 0 mm | - | 141 W/m² | - |
| 1777410057 | 27.22° C | 54% | 1018.1 hPa | 0 mm | - | 169 W/m² | - |
| 1777407937 | 27.22° C | 55% | 1018.5 hPa | 0 mm | - | 225 W/m² | - |
| 1777407635 | 27.22° C | 54% | 1018.7 hPa | 0 mm | - | 161 W/m² | - |
| 1777407334 | 27.22° C | 54% | 1018.7 hPa | 0 mm | - | 147 W/m² | - |
| 1777407030 | 27.22° C | 54% | 1018.9 hPa | 0 mm | - | 112 W/m² | - |
| 1777406724 | 27.22° C | 54% | 1018.7 hPa | 0 mm | - | 119 W/m² | - |
| 1777406420 | 27.78° C | 53% | 1018.9 hPa | 0 mm | - | 152 W/m² | - |
| 1777405816 | 27.78° C | 54% | 1018.8 hPa | 0 mm | - | 467 W/m² | - |
| 1777405512 | 27.78° C | 55% | 1019.1 hPa | 0 mm | - | 503 W/m² | - |
| 1777404907 | 28.33° C | 53% | 1019.1 hPa | 0 mm | - | 546 W/m² | - |
| 1777404301 | 27.22° C | 56% | 1019.3 hPa | 0 mm | - | 486 W/m² | - |
| 1777403997 | 27.22° C | 57% | 1019.6 hPa | 0 mm | - | 377 W/m² | - |
* Rain latest hour (hover to see other rain measurements)
** Current wind speed in m/s (hover to see current wind gust speed)